sensor_id;sensor_type;location;lat;lon;timestamp;temperature;humidity
20070;DHT22;10195;50.868;4.382;2023-03-16T00:00:44;8.10;99.90
20070;DHT22;10195;50.868;4.382;2023-03-16T00:03:11;8.10;99.90
20070;DHT22;10195;50.868;4.382;2023-03-16T00:05:44;8.00;99.90
20070;DHT22;10195;50.868;4.382;2023-03-16T00:08:11;8.10;99.90
20070;DHT22;10195;50.868;4.382;2023-03-16T00:10:36;8.00;99.90
20070;DHT22;10195;50.868;4.382;2023-03-16T00:13:02;8.00;99.90
20070;DHT22;10195;50.868;4.382;2023-03-16T00:15:28;8.00;99.90
20070;DHT22;10195;50.868;4.382;2023-03-16T00:17:54;7.90;99.90
20070;DHT22;10195;50.868;4.382;2023-03-16T00:20:20;8.10;99.90
20070;DHT22;10195;50.868;4.382;2023-03-16T00:22:45;8.10;99.90
20070;DHT22;10195;50.868;4.382;2023-03-16T00:25:12;8.10;99.90
20070;DHT22;10195;50.868;4.382;2023-03-16T00:27:39;8.10;99.90
20070;DHT22;10195;50.868;4.382;2023-03-16T00:30:05;8.10;99.90
20070;DHT22;10195;50.868;4.382;2023-03-16T00:32:35;8.20;99.90
20070;DHT22;10195;50.868;4.382;2023-03-16T00:35:02;8.10;99.90
20070;DHT22;10195;50.868;4.382;2023-03-16T00:37:28;8.10;99.90
20070;DHT22;10195;50.868;4.382;2023-03-16T00:39:56;8.30;99.90
20070;DHT22;10195;50.868;4.382;2023-03-16T00:42:26;8.30;99.90
20070;DHT22;10195;50.868;4.382;2023-03-16T00:44:59;8.30;99.90
20070;DHT22;10195;50.868;4.382;2023-03-16T00:47:28;8.30;99.90
20070;DHT22;10195;50.868;4.382;2023-03-16T00:49:54;8.20;99.90
20070;DHT22;10195;50.868;4.382;2023-03-16T00:52:20;8.30;99.90
20070;DHT22;10195;50.868;4.382;2023-03-16T00:54:47;8.30;99.90
20070;DHT22;10195;50.868;4.382;2023-03-16T00:57:15;8.40;99.90
20070;DHT22;10195;50.868;4.382;2023-03-16T00:59:43;8.30;99.90
20070;DHT22;10195;50.868;4.382;2023-03-16T01:02:10;8.30;99.90
20070;DHT22;10195;50.868;4.382;2023-03-16T01:04:36;8.30;99.90
20070;DHT22;10195;50.868;4.382;2023-03-16T01:07:05;8.40;99.90
20070;DHT22;10195;50.868;4.382;2023-03-16T01:09:31;8.30;99.90
20070;DHT22;10195;50.868;4.382;2023-03-16T01:12:02;8.30;99.90
20070;DHT22;10195;50.868;4.382;2023-03-16T01:14:31;8.20;99.90
20070;DHT22;10195;50.868;4.382;2023-03-16T01:16:57;8.20;99.90
20070;DHT22;10195;50.868;4.382;2023-03-16T01:19:23;8.10;99.90
20070;DHT22;10195;50.868;4.382;2023-03-16T01:21:49;8.00;99.90
20070;DHT22;10195;50.868;4.382;2023-03-16T01:24:14;8.00;99.90
20070;DHT22;10195;50.868;4.382;2023-03-16T01:26:40;8.10;99.90
20070;DHT22;10195;50.868;4.382;2023-03-16T01:29:06;8.30;99.90
20070;DHT22;10195;50.868;4.382;2023-03-16T01:31:31;8.20;99.90
20070;DHT22;10195;50.868;4.382;2023-03-16T01:33:57;8.20;99.90
20070;DHT22;10195;50.868;4.382;2023-03-16T01:36:23;8.20;99.90
20070;DHT22;10195;50.868;4.382;2023-03-16T01:38:48;8.20;99.90
20070;DHT22;10195;50.868;4.382;2023-03-16T01:41:14;8.10;99.90
20070;DHT22;10195;50.868;4.382;2023-03-16T01:43:40;8.10;99.90
20070;DHT22;10195;50.868;4.382;2023-03-16T01:46:25;8.10;99.90
20070;DHT22;10195;50.868;4.382;2023-03-16T01:49:09;8.10;99.90
20070;DHT22;10195;50.868;4.382;2023-03-16T01:59:17;8.00;99.90
20070;DHT22;10195;50.868;4.382;2023-03-16T02:01:46;8.00;99.90
20070;DHT22;10195;50.868;4.382;2023-03-16T02:04:34;8.00;99.90
20070;DHT22;10195;50.868;4.382;2023-03-16T02:07:02;8.10;99.90
20070;DHT22;10195;50.868;4.382;2023-03-16T02:09:30;8.10;99.90
20070;DHT22;10195;50.868;4.382;2023-03-16T02:11:57;8.10;99.90
20070;DHT22;10195;50.868;4.382;2023-03-16T02:14:22;8.10;99.90
20070;DHT22;10195;50.868;4.382;2023-03-16T02:16:49;8.40;99.90
20070;DHT22;10195;50.868;4.382;2023-03-16T02:19:25;8.30;99.90
20070;DHT22;10195;50.868;4.382;2023-03-16T02:22:06;8.30;99.90
20070;DHT22;10195;50.868;4.382;2023-03-16T02:24:32;8.30;99.90
20070;DHT22;10195;50.868;4.382;2023-03-16T02:27:08;8.20;99.90
20070;DHT22;10195;50.868;4.382;2023-03-16T02:32:22;8.20;99.90
20070;DHT22;10195;50.868;4.382;2023-03-16T02:34:49;8.30;99.90
20070;DHT22;10195;50.868;4.382;2023-03-16T02:37:14;8.30;99.90
20070;DHT22;10195;50.868;4.382;2023-03-16T02:39:40;8.00;99.90
20070;DHT22;10195;50.868;4.382;2023-03-16T02:42:12;8.00;99.90
20070;DHT22;10195;50.868;4.382;2023-03-16T02:44:38;8.00;99.90
20070;DHT22;10195;50.868;4.382;2023-03-16T02:47:10;8.10;99.90
20070;DHT22;10195;50.868;4.382;2023-03-16T02:49:43;8.20;99.90
20070;DHT22;10195;50.868;4.382;2023-03-16T02:52:10;8.20;99.90
20070;DHT22;10195;50.868;4.382;2023-03-16T02:54:36;8.20;99.90
20070;DHT22;10195;50.868;4.382;2023-03-16T02:57:03;8.10;99.90
20070;DHT22;10195;50.868;4.382;2023-03-16T02:59:30;8.10;99.90
20070;DHT22;10195;50.868;4.382;2023-03-16T03:01:56;7.90;99.90
20070;DHT22;10195;50.868;4.382;2023-03-16T03:04:22;7.90;99.90
20070;DHT22;10195;50.868;4.382;2023-03-16T03:06:49;7.90;99.90
20070;DHT22;10195;50.868;4.382;2023-03-16T03:09:16;7.90;99.90
20070;DHT22;10195;50.868;4.382;2023-03-16T03:11:43;8.00;99.90
20070;DHT22;10195;50.868;4.382;2023-03-16T03:14:08;7.90;99.90
20070;DHT22;10195;50.868;4.382;2023-03-16T03:16:34;8.10;99.90
20070;DHT22;10195;50.868;4.382;2023-03-16T03:19:00;8.10;99.90
20070;DHT22;10195;50.868;4.382;2023-03-16T03:21:25;7.90;99.90
20070;DHT22;10195;50.868;4.382;2023-03-16T03:23:51;8.00;99.90
20070;DHT22;10195;50.868;4.382;2023-03-16T03:26:17;7.90;99.90
20070;DHT22;10195;50.868;4.382;2023-03-16T03:28:43;7.90;99.90
20070;DHT22;10195;50.868;4.382;2023-03-16T03:31:17;7.80;99.90
20070;DHT22;10195;50.868;4.382;2023-03-16T03:33:43;7.90;99.90
20070;DHT22;10195;50.868;4.382;2023-03-16T03:36:10;7.80;99.90
20070;DHT22;10195;50.868;4.382;2023-03-16T03:38:36;7.90;99.90
20070;DHT22;10195;50.868;4.382;2023-03-16T03:41:02;7.80;99.90
20070;DHT22;10195;50.868;4.382;2023-03-16T03:43:31;7.70;99.90
20070;DHT22;10195;50.868;4.382;2023-03-16T03:45:58;7.90;99.90
20070;DHT22;10195;50.868;4.382;2023-03-16T03:48:24;7.90;99.90
20070;DHT22;10195;50.868;4.382;2023-03-16T03:50:50;7.90;99.90
20070;DHT22;10195;50.868;4.382;2023-03-16T03:53:16;8.10;99.90
20070;DHT22;10195;50.868;4.382;2023-03-16T03:55:42;8.20;99.90
20070;DHT22;10195;50.868;4.382;2023-03-16T03:58:07;8.20;99.90
20070;DHT22;10195;50.868;4.382;2023-03-16T04:00:33;8.10;99.90
20070;DHT22;10195;50.868;4.382;2023-03-16T04:03:00;8.10;99.90
20070;DHT22;10195;50.868;4.382;2023-03-16T04:05:25;7.90;99.90
20070;DHT22;10195;50.868;4.382;2023-03-16T04:07:52;8.10;99.90
20070;DHT22;10195;50.868;4.382;2023-03-16T04:10:25;8.30;99.90
20070;DHT22;10195;50.868;4.382;2023-03-16T04:12:51;8.10;99.90
20070;DHT22;10195;50.868;4.382;2023-03-16T04:15:18;7.80;99.90
20070;DHT22;10195;50.868;4.382;2023-03-16T04:17:44;7.80;99.90
20070;DHT22;10195;50.868;4.382;2023-03-16T04:20:10;7.80;99.90
20070;DHT22;10195;50.868;4.382;2023-03-16T04:22:40;8.00;99.90
20070;DHT22;10195;50.868;4.382;2023-03-16T04:25:08;7.80;99.90
20070;DHT22;10195;50.868;4.382;2023-03-16T04:27:33;8.10;99.90
20070;DHT22;10195;50.868;4.382;2023-03-16T04:30:04;8.20;99.90
20070;DHT22;10195;50.868;4.382;2023-03-16T04:32:34;8.20;99.90
20070;DHT22;10195;50.868;4.382;2023-03-16T04:35:00;8.10;99.90
20070;DHT22;10195;50.868;4.382;2023-03-16T04:37:26;7.90;99.90
20070;DHT22;10195;50.868;4.382;2023-03-16T04:39:52;8.00;99.90
20070;DHT22;10195;50.868;4.382;2023-03-16T04:42:17;7.90;99.90
20070;DHT22;10195;50.868;4.382;2023-03-16T04:44:43;8.00;99.90
20070;DHT22;10195;50.868;4.382;2023-03-16T04:47:13;7.90;99.90
20070;DHT22;10195;50.868;4.382;2023-03-16T04:49:39;7.90;99.90
20070;DHT22;10195;50.868;4.382;2023-03-16T04:52:05;7.80;99.90
20070;DHT22;10195;50.868;4.382;2023-03-16T04:54:31;7.80;99.90
20070;DHT22;10195;50.868;4.382;2023-03-16T04:56:58;7.80;99.90
20070;DHT22;10195;50.868;4.382;2023-03-16T04:59:25;7.90;99.90
20070;DHT22;10195;50.868;4.382;2023-03-16T05:01:51;7.70;99.90
20070;DHT22;10195;50.868;4.382;2023-03-16T05:04:18;7.60;99.90
20070;DHT22;10195;50.868;4.382;2023-03-16T05:06:44;7.70;99.90
20070;DHT22;10195;50.868;4.382;2023-03-16T05:09:10;7.60;99.90
20070;DHT22;10195;50.868;4.382;2023-03-16T05:11:36;7.50;99.90
20070;DHT22;10195;50.868;4.382;2023-03-16T05:14:02;7.40;99.90
20070;DHT22;10195;50.868;4.382;2023-03-16T05:16:28;7.50;99.90
20070;DHT22;10195;50.868;4.382;2023-03-16T05:18:57;7.60;99.90
20070;DHT22;10195;50.868;4.382;2023-03-16T05:21:23;7.60;99.90
20070;DHT22;10195;50.868;4.382;2023-03-16T05:23:48;7.60;99.90
20070;DHT22;10195;50.868;4.382;2023-03-16T05:26:14;7.50;99.90
20070;DHT22;10195;50.868;4.382;2023-03-16T05:28:40;7.60;99.90
20070;DHT22;10195;50.868;4.382;2023-03-16T05:31:07;7.80;99.90
20070;DHT22;10195;50.868;4.382;2023-03-16T05:33:33;7.70;99.90
20070;DHT22;10195;50.868;4.382;2023-03-16T05:35:58;7.60;99.90
20070;DHT22;10195;50.868;4.382;2023-03-16T05:38:24;7.60;99.90
20070;DHT22;10195;50.868;4.382;2023-03-16T05:40:51;7.70;99.90
20070;DHT22;10195;50.868;4.382;2023-03-16T05:43:20;7.70;99.90
20070;DHT22;10195;50.868;4.382;2023-03-16T05:45:46;7.80;99.90
20070;DHT22;10195;50.868;4.382;2023-03-16T05:48:13;7.90;99.90
20070;DHT22;10195;50.868;4.382;2023-03-16T05:50:40;7.80;99.90
20070;DHT22;10195;50.868;4.382;2023-03-16T05:53:06;7.80;99.90
20070;DHT22;10195;50.868;4.382;2023-03-16T05:55:33;7.80;99.90
20070;DHT22;10195;50.868;4.382;2023-03-16T05:57:59;7.80;99.90
20070;DHT22;10195;50.868;4.382;2023-03-16T06:00:25;7.60;99.90
20070;DHT22;10195;50.868;4.382;2023-03-16T06:02:52;7.70;99.90
20070;DHT22;10195;50.868;4.382;2023-03-16T06:05:19;7.70;99.90
20070;DHT22;10195;50.868;4.382;2023-03-16T06:07:46;7.60;99.90
20070;DHT22;10195;50.868;4.382;2023-03-16T06:10:13;7.70;99.90
20070;DHT22;10195;50.868;4.382;2023-03-16T06:12:39;7.80;99.90
20070;DHT22;10195;50.868;4.382;2023-03-16T06:15:07;7.90;99.90
20070;DHT22;10195;50.868;4.382;2023-03-16T06:17:33;7.90;99.90
20070;DHT22;10195;50.868;4.382;2023-03-16T06:19:59;7.90;99.90
20070;DHT22;10195;50.868;4.382;2023-03-16T06:22:26;7.90;99.90
20070;DHT22;10195;50.868;4.382;2023-03-16T06:24:52;7.90;99.90
20070;DHT22;10195;50.868;4.382;2023-03-16T06:27:18;8.10;99.90
20070;DHT22;10195;50.868;4.382;2023-03-16T06:29:49;8.20;99.90
20070;DHT22;10195;50.868;4.382;2023-03-16T06:32:15;8.30;99.90
20070;DHT22;10195;50.868;4.382;2023-03-16T06:34:40;8.30;99.90
20070;DHT22;10195;50.868;4.382;2023-03-16T06:37:06;8.20;99.90
20070;DHT22;10195;50.868;4.382;2023-03-16T06:39:32;8.20;99.90
20070;DHT22;10195;50.868;4.382;2023-03-16T06:41:58;8.30;99.90
20070;DHT22;10195;50.868;4.382;2023-03-16T06:44:23;8.40;99.90
20070;DHT22;10195;50.868;4.382;2023-03-16T06:46:49;8.30;99.90
20070;DHT22;10195;50.868;4.382;2023-03-16T06:49:15;8.30;99.90
20070;DHT22;10195;50.868;4.382;2023-03-16T06:51:41;8.40;99.90
20070;DHT22;10195;50.868;4.382;2023-03-16T06:54:07;8.50;99.90
20070;DHT22;10195;50.868;4.382;2023-03-16T06:56:33;8.40;99.90
20070;DHT22;10195;50.868;4.382;2023-03-16T06:58:58;8.50;99.90
20070;DHT22;10195;50.868;4.382;2023-03-16T07:01:24;8.50;99.90
20070;DHT22;10195;50.868;4.382;2023-03-16T07:03:50;8.60;99.90
20070;DHT22;10195;50.868;4.382;2023-03-16T07:06:16;8.70;99.90
20070;DHT22;10195;50.868;4.382;2023-03-16T07:08:41;8.60;99.90
20070;DHT22;10195;50.868;4.382;2023-03-16T07:11:08;8.60;99.90
20070;DHT22;10195;50.868;4.382;2023-03-16T07:13:34;8.70;99.90
20070;DHT22;10195;50.868;4.382;2023-03-16T07:16:00;8.70;99.90
20070;DHT22;10195;50.868;4.382;2023-03-16T07:18:26;8.80;99.90
20070;DHT22;10195;50.868;4.382;2023-03-16T07:20:53;8.80;99.90
20070;DHT22;10195;50.868;4.382;2023-03-16T07:23:19;8.70;99.90
20070;DHT22;10195;50.868;4.382;2023-03-16T07:25:45;8.90;99.90
20070;DHT22;10195;50.868;4.382;2023-03-16T07:28:11;9.10;99.90
20070;DHT22;10195;50.868;4.382;2023-03-16T07:30:36;9.10;99.90
20070;DHT22;10195;50.868;4.382;2023-03-16T07:33:03;9.20;99.90
20070;DHT22;10195;50.868;4.382;2023-03-16T07:35:30;9.20;99.90
20070;DHT22;10195;50.868;4.382;2023-03-16T07:37:56;9.60;99.90
20070;DHT22;10195;50.868;4.382;2023-03-16T07:40:21;10.00;99.90
20070;DHT22;10195;50.868;4.382;2023-03-16T07:42:47;10.10;99.90
20070;DHT22;10195;50.868;4.382;2023-03-16T07:45:13;10.40;99.90
20070;DHT22;10195;50.868;4.382;2023-03-16T07:47:39;10.80;99.90
20070;DHT22;10195;50.868;4.382;2023-03-16T07:50:06;11.10;99.90
20070;DHT22;10195;50.868;4.382;2023-03-16T07:52:33;11.50;99.90
20070;DHT22;10195;50.868;4.382;2023-03-16T07:54:58;11.40;99.90
20070;DHT22;10195;50.868;4.382;2023-03-16T07:57:24;11.70;99.90
20070;DHT22;10195;50.868;4.382;2023-03-16T07:59:50;11.90;99.90
20070;DHT22;10195;50.868;4.382;2023-03-16T08:02:18;11.80;99.90
20070;DHT22;10195;50.868;4.382;2023-03-16T08:04:44;11.80;99.90
20070;DHT22;10195;50.868;4.382;2023-03-16T08:07:11;11.80;99.90
20070;DHT22;10195;50.868;4.382;2023-03-16T08:09:37;11.80;99.90
20070;DHT22;10195;50.868;4.382;2023-03-16T08:12:03;11.50;99.90
20070;DHT22;10195;50.868;4.382;2023-03-16T08:14:31;11.50;99.90
20070;DHT22;10195;50.868;4.382;2023-03-16T08:17:04;11.80;99.90
20070;DHT22;10195;50.868;4.382;2023-03-16T08:19:30;11.70;99.90
20070;DHT22;10195;50.868;4.382;2023-03-16T08:21:57;11.70;99.90
20070;DHT22;10195;50.868;4.382;2023-03-16T08:24:25;11.80;99.90
20070;DHT22;10195;50.868;4.382;2023-03-16T08:26:51;11.90;99.90
20070;DHT22;10195;50.868;4.382;2023-03-16T08:29:17;12.00;99.90
20070;DHT22;10195;50.868;4.382;2023-03-16T08:31:43;11.90;99.90
20070;DHT22;10195;50.868;4.382;2023-03-16T08:34:09;12.10;99.90
20070;DHT22;10195;50.868;4.382;2023-03-16T08:36:36;12.30;99.90
20070;DHT22;10195;50.868;4.382;2023-03-16T08:39:03;12.60;99.90
20070;DHT22;10195;50.868;4.382;2023-03-16T08:41:31;13.10;99.90
20070;DHT22;10195;50.868;4.382;2023-03-16T08:43:57;13.40;99.90
20070;DHT22;10195;50.868;4.382;2023-03-16T08:46:23;13.20;99.90
20070;DHT22;10195;50.868;4.382;2023-03-16T08:48:49;13.60;99.90
20070;DHT22;10195;50.868;4.382;2023-03-16T08:51:15;13.70;99.90
20070;DHT22;10195;50.868;4.382;2023-03-16T08:53:42;13.60;99.90
20070;DHT22;10195;50.868;4.382;2023-03-16T08:56:10;13.70;99.90
20070;DHT22;10195;50.868;4.382;2023-03-16T08:58:37;13.70;99.90
20070;DHT22;10195;50.868;4.382;2023-03-16T09:01:04;13.80;99.90
20070;DHT22;10195;50.868;4.382;2023-03-16T09:03:31;13.30;99.90
20070;DHT22;10195;50.868;4.382;2023-03-16T09:06:02;13.30;99.90
20070;DHT22;10195;50.868;4.382;2023-03-16T09:08:28;13.00;99.90
20070;DHT22;10195;50.868;4.382;2023-03-16T09:11:06;12.90;99.90
20070;DHT22;10195;50.868;4.382;2023-03-16T09:13:33;13.00;99.90
20070;DHT22;10195;50.868;4.382;2023-03-16T09:15:59;13.00;99.90
20070;DHT22;10195;50.868;4.382;2023-03-16T09:18:25;13.10;99.90
20070;DHT22;10195;50.868;4.382;2023-03-16T09:21:11;13.20;99.90
20070;DHT22;10195;50.868;4.382;2023-03-16T09:23:39;13.00;99.90
20070;DHT22;10195;50.868;4.382;2023-03-16T09:26:06;12.90;99.90
20070;DHT22;10195;50.868;4.382;2023-03-16T09:28:33;12.60;99.90
20070;DHT22;10195;50.868;4.382;2023-03-16T09:31:00;12.40;99.90
20070;DHT22;10195;50.868;4.382;2023-03-16T09:33:28;12.60;99.90
20070;DHT22;10195;50.868;4.382;2023-03-16T09:35:55;12.90;99.90
20070;DHT22;10195;50.868;4.382;2023-03-16T09:38:22;13.10;99.90
20070;DHT22;10195;50.868;4.382;2023-03-16T09:40:59;13.30;99.90
20070;DHT22;10195;50.868;4.382;2023-03-16T09:46:31;13.00;99.90
20070;DHT22;10195;50.868;4.382;2023-03-16T09:48:58;13.30;99.90
20070;DHT22;10195;50.868;4.382;2023-03-16T09:57:04;13.80;99.90
20070;DHT22;10195;50.868;4.382;2023-03-16T09:59:36;13.80;99.90
20070;DHT22;10195;50.868;4.382;2023-03-16T10:12:59;14.50;99.90
20070;DHT22;10195;50.868;4.382;2023-03-16T10:15:28;14.80;99.90
20070;DHT22;10195;50.868;4.382;2023-03-16T10:18:03;15.50;99.90
20070;DHT22;10195;50.868;4.382;2023-03-16T10:20:33;16.20;99.90
20070;DHT22;10195;50.868;4.382;2023-03-16T10:23:00;16.60;99.90
20070;DHT22;10195;50.868;4.382;2023-03-16T10:25:47;16.50;99.90
20070;DHT22;10195;50.868;4.382;2023-03-16T10:28:22;16.50;99.90
20070;DHT22;10195;50.868;4.382;2023-03-16T10:30:51;16.80;99.90
20070;DHT22;10195;50.868;4.382;2023-03-16T10:33:19;17.00;99.90
20070;DHT22;10195;50.868;4.382;2023-03-16T10:36:02;17.00;99.90
20070;DHT22;10195;50.868;4.382;2023-03-16T10:38:36;17.00;99.90
20070;DHT22;10195;50.868;4.382;2023-03-16T10:41:22;16.50;99.90
20070;DHT22;10195;50.868;4.382;2023-03-16T10:44:26;15.90;99.90
20070;DHT22;10195;50.868;4.382;2023-03-16T10:47:04;15.50;99.90
20070;DHT22;10195;50.868;4.382;2023-03-16T10:49:38;15.60;99.90
20070;DHT22;10195;50.868;4.382;2023-03-16T10:52:13;15.50;99.90
20070;DHT22;10195;50.868;4.382;2023-03-16T10:54:54;15.40;99.90
20070;DHT22;10195;50.868;4.382;2023-03-16T10:57:23;15.40;99.90
20070;DHT22;10195;50.868;4.382;2023-03-16T10:59:54;15.40;99.90
20070;DHT22;10195;50.868;4.382;2023-03-16T11:02:30;15.40;99.90
20070;DHT22;10195;50.868;4.382;2023-03-16T11:04:57;15.20;99.90
20070;DHT22;10195;50.868;4.382;2023-03-16T11:07:23;15.10;99.90
20070;DHT22;10195;50.868;4.382;2023-03-16T11:09:54;15.00;99.90
20070;DHT22;10195;50.868;4.382;2023-03-16T11:12:26;15.30;99.90
20070;DHT22;10195;50.868;4.382;2023-03-16T11:15:04;15.50;99.90
20070;DHT22;10195;50.868;4.382;2023-03-16T11:17:40;15.50;99.90
20070;DHT22;10195;50.868;4.382;2023-03-16T11:20:24;15.40;99.90
20070;DHT22;10195;50.868;4.382;2023-03-16T11:22:50;15.50;99.90
20070;DHT22;10195;50.868;4.382;2023-03-16T11:25:34;15.30;99.90
20070;DHT22;10195;50.868;4.382;2023-03-16T11:34:11;15.20;99.90
20070;DHT22;10195;50.868;4.382;2023-03-16T11:45:40;14.60;99.90
20070;DHT22;10195;50.868;4.382;2023-03-16T11:48:13;14.80;99.90
20070;DHT22;10195;50.868;4.382;2023-03-16T11:50:48;14.70;99.90
20070;DHT22;10195;50.868;4.382;2023-03-16T12:04:53;14.80;99.90
20070;DHT22;10195;50.868;4.382;2023-03-16T12:10:14;15.20;99.90
20070;DHT22;10195;50.868;4.382;2023-03-16T12:12:54;15.20;99.90
20070;DHT22;10195;50.868;4.382;2023-03-16T12:18:17;15.30;99.90
20070;DHT22;10195;50.868;4.382;2023-03-16T12:21:00;15.20;99.90
20070;DHT22;10195;50.868;4.382;2023-03-16T12:26:08;15.20;99.90
20070;DHT22;10195;50.868;4.382;2023-03-16T12:28:34;15.20;99.90
20070;DHT22;10195;50.868;4.382;2023-03-16T12:31:19;15.10;99.90
20070;DHT22;10195;50.868;4.382;2023-03-16T12:41:59;15.10;99.90
20070;DHT22;10195;50.868;4.382;2023-03-16T12:44:45;15.10;99.90
20070;DHT22;10195;50.868;4.382;2023-03-16T12:47:48;15.00;99.90
20070;DHT22;10195;50.868;4.382;2023-03-16T12:50:18;15.00;99.90
20070;DHT22;10195;50.868;4.382;2023-03-16T12:52:49;15.10;99.90
20070;DHT22;10195;50.868;4.382;2023-03-16T12:55:18;15.20;99.90
20070;DHT22;10195;50.868;4.382;2023-03-16T12:57:46;15.30;99.90
20070;DHT22;10195;50.868;4.382;2023-03-16T13:00:13;15.30;99.90
20070;DHT22;10195;50.868;4.382;2023-03-16T13:02:52;15.50;99.90
20070;DHT22;10195;50.868;4.382;2023-03-16T13:05:36;15.50;99.90
20070;DHT22;10195;50.868;4.382;2023-03-16T13:08:13;15.60;99.90
20070;DHT22;10195;50.868;4.382;2023-03-16T13:10:40;15.50;99.90
20070;DHT22;10195;50.868;4.382;2023-03-16T13:13:13;15.30;99.90
20070;DHT22;10195;50.868;4.382;2023-03-16T13:15:43;15.40;99.90
20070;DHT22;10195;50.868;4.382;2023-03-16T13:20:57;15.60;99.90
20070;DHT22;10195;50.868;4.382;2023-03-16T13:23:26;15.80;99.90
20070;DHT22;10195;50.868;4.382;2023-03-16T13:26:16;16.10;99.90
20070;DHT22;10195;50.868;4.382;2023-03-16T13:28:44;16.10;99.90
20070;DHT22;10195;50.868;4.382;2023-03-16T13:31:27;16.00;99.90
20070;DHT22;10195;50.868;4.382;2023-03-16T13:34:01;15.70;99.90
20070;DHT22;10195;50.868;4.382;2023-03-16T13:36:28;15.50;99.90
20070;DHT22;10195;50.868;4.382;2023-03-16T13:39:20;15.50;99.90
20070;DHT22;10195;50.868;4.382;2023-03-16T13:44:30;15.60;99.90
20070;DHT22;10195;50.868;4.382;2023-03-16T13:46:56;15.70;99.90
20070;DHT22;10195;50.868;4.382;2023-03-16T13:49:26;15.90;99.90
20070;DHT22;10195;50.868;4.382;2023-03-16T13:51:53;16.00;99.90
20070;DHT22;10195;50.868;4.382;2023-03-16T13:54:27;15.90;99.90
20070;DHT22;10195;50.868;4.382;2023-03-16T13:57:00;15.90;99.90
20070;DHT22;10195;50.868;4.382;2023-03-16T13:59:27;15.80;99.90
20070;DHT22;10195;50.868;4.382;2023-03-16T14:01:58;15.60;99.90
20070;DHT22;10195;50.868;4.382;2023-03-16T14:04:27;15.60;99.90
20070;DHT22;10195;50.868;4.382;2023-03-16T14:06:59;15.60;99.90
20070;DHT22;10195;50.868;4.382;2023-03-16T14:09:28;15.70;99.90
20070;DHT22;10195;50.868;4.382;2023-03-16T14:11:56;15.90;99.90
20070;DHT22;10195;50.868;4.382;2023-03-16T14:14:25;15.70;99.90
20070;DHT22;10195;50.868;4.382;2023-03-16T14:16:52;16.00;99.90
20070;DHT22;10195;50.868;4.382;2023-03-16T14:19:23;15.80;99.90
20070;DHT22;10195;50.868;4.382;2023-03-16T14:22:02;15.80;99.90
20070;DHT22;10195;50.868;4.382;2023-03-16T14:24:35;15.80;99.90
20070;DHT22;10195;50.868;4.382;2023-03-16T14:29:58;15.70;99.90
20070;DHT22;10195;50.868;4.382;2023-03-16T14:32:31;15.80;99.90
20070;DHT22;10195;50.868;4.382;2023-03-16T14:35:19;15.90;99.90
20070;DHT22;10195;50.868;4.382;2023-03-16T14:37:45;15.80;99.90
20070;DHT22;10195;50.868;4.382;2023-03-16T14:40:27;15.80;99.90
20070;DHT22;10195;50.868;4.382;2023-03-16T14:42:55;15.70;99.90
20070;DHT22;10195;50.868;4.382;2023-03-16T14:45:22;15.70;99.90
20070;DHT22;10195;50.868;4.382;2023-03-16T14:47:50;15.80;99.90
20070;DHT22;10195;50.868;4.382;2023-03-16T14:50:22;15.90;99.90
20070;DHT22;10195;50.868;4.382;2023-03-16T14:52:50;16.00;99.90
20070;DHT22;10195;50.868;4.382;2023-03-16T14:55:18;16.20;99.90
20070;DHT22;10195;50.868;4.382;2023-03-16T14:57:45;16.10;99.90
20070;DHT22;10195;50.868;4.382;2023-03-16T15:00:13;16.20;99.90
20070;DHT22;10195;50.868;4.382;2023-03-16T15:02:42;16.40;99.90
20070;DHT22;10195;50.868;4.382;2023-03-16T15:05:16;16.50;99.90
20070;DHT22;10195;50.868;4.382;2023-03-16T15:07:44;16.30;99.90
20070;DHT22;10195;50.868;4.382;2023-03-16T15:12:39;16.40;99.90
20070;DHT22;10195;50.868;4.382;2023-03-16T15:15:15;16.50;99.90
20070;DHT22;10195;50.868;4.382;2023-03-16T15:17:43;16.30;99.90
20070;DHT22;10195;50.868;4.382;2023-03-16T15:20:14;16.10;99.90
20070;DHT22;10195;50.868;4.382;2023-03-16T15:22:42;16.00;99.90
20070;DHT22;10195;50.868;4.382;2023-03-16T15:27:51;15.90;99.90
20070;DHT22;10195;50.868;4.382;2023-03-16T15:30:27;15.80;99.90
20070;DHT22;10195;50.868;4.382;2023-03-16T15:32:55;15.80;99.90
20070;DHT22;10195;50.868;4.382;2023-03-16T15:35:21;15.90;99.90
20070;DHT22;10195;50.868;4.382;2023-03-16T15:37:47;16.00;99.90
20070;DHT22;10195;50.868;4.382;2023-03-16T15:40:27;16.10;99.90
20070;DHT22;10195;50.868;4.382;2023-03-16T15:42:53;15.90;99.90
20070;DHT22;10195;50.868;4.382;2023-03-16T15:45:21;15.90;99.90
20070;DHT22;10195;50.868;4.382;2023-03-16T15:47:49;15.70;99.90
20070;DHT22;10195;50.868;4.382;2023-03-16T15:50:16;15.70;99.90
20070;DHT22;10195;50.868;4.382;2023-03-16T15:52:47;15.60;99.90
20070;DHT22;10195;50.868;4.382;2023-03-16T15:55:20;15.60;99.90
20070;DHT22;10195;50.868;4.382;2023-03-16T15:57:56;15.50;99.90
20070;DHT22;10195;50.868;4.382;2023-03-16T16:00:27;15.30;99.90
20070;DHT22;10195;50.868;4.382;2023-03-16T16:02:55;15.50;99.90
20070;DHT22;10195;50.868;4.382;2023-03-16T16:05:22;15.60;99.90
20070;DHT22;10195;50.868;4.382;2023-03-16T16:07:48;15.50;99.90
20070;DHT22;10195;50.868;4.382;2023-03-16T16:10:14;15.50;99.90
20070;DHT22;10195;50.868;4.382;2023-03-16T16:12:42;15.50;99.90
20070;DHT22;10195;50.868;4.382;2023-03-16T16:17:47;15.80;99.90
20070;DHT22;10195;50.868;4.382;2023-03-16T16:20:39;15.80;99.90
20070;DHT22;10195;50.868;4.382;2023-03-16T16:23:05;15.80;99.90
20070;DHT22;10195;50.868;4.382;2023-03-16T16:25:37;15.70;99.90
20070;DHT22;10195;50.868;4.382;2023-03-16T16:28:14;15.50;99.90
20070;DHT22;10195;50.868;4.382;2023-03-16T16:30:41;15.30;99.90
20070;DHT22;10195;50.868;4.382;2023-03-16T16:33:38;15.40;99.90
20070;DHT22;10195;50.868;4.382;2023-03-16T16:36:09;15.30;99.90
20070;DHT22;10195;50.868;4.382;2023-03-16T16:38:36;15.10;99.90
20070;DHT22;10195;50.868;4.382;2023-03-16T16:41:06;15.10;99.90
20070;DHT22;10195;50.868;4.382;2023-03-16T16:43:41;15.20;99.90
20070;DHT22;10195;50.868;4.382;2023-03-16T16:46:22;15.20;99.90
20070;DHT22;10195;50.868;4.382;2023-03-16T16:48:51;15.10;99.90
20070;DHT22;10195;50.868;4.382;2023-03-16T16:51:21;15.00;99.90
20070;DHT22;10195;50.868;4.382;2023-03-16T16:53:48;15.00;99.90
20070;DHT22;10195;50.868;4.382;2023-03-16T16:56:15;15.10;99.90
20070;DHT22;10195;50.868;4.382;2023-03-16T16:58:43;15.20;99.90
20070;DHT22;10195;50.868;4.382;2023-03-16T17:01:15;15.10;99.90
20070;DHT22;10195;50.868;4.382;2023-03-16T17:03:44;15.00;99.90
20070;DHT22;10195;50.868;4.382;2023-03-16T17:06:18;15.10;99.90
20070;DHT22;10195;50.868;4.382;2023-03-16T17:08:44;15.10;99.90
20070;DHT22;10195;50.868;4.382;2023-03-16T17:11:20;14.90;99.90
20070;DHT22;10195;50.868;4.382;2023-03-16T17:13:47;14.80;99.90
20070;DHT22;10195;50.868;4.382;2023-03-16T17:16:16;14.80;99.90
20070;DHT22;10195;50.868;4.382;2023-03-16T17:18:43;14.80;99.90